createdAt,value
2023-04-18T00:02:23.258Z,62.21
2023-04-18T00:07:27.580Z,63.42
2023-04-18T00:12:30.687Z,62.59
2023-04-18T00:17:33.438Z,63.74
2023-04-18T00:22:42.271Z,62.40
2023-04-18T00:27:45.084Z,62.07
2023-04-18T00:32:47.863Z,63.84
2023-04-18T00:37:52.325Z,63.41
2023-04-18T00:42:55.038Z,62.09
2023-04-18T00:47:57.865Z,62.18
2023-04-18T00:53:02.144Z,63.96
2023-04-18T00:58:06.182Z,63.03
2023-04-18T01:03:10.780Z,61.63
2023-04-18T01:08:15.340Z,60.56
2023-04-18T01:13:19.437Z,59.57
2023-04-18T01:18:24.336Z,61.63
2023-04-18T01:23:28.444Z,60.87
2023-04-18T01:28:32.525Z,62.45
2023-04-18T01:33:35.221Z,64.36
2023-04-18T01:38:37.956Z,64.28
2023-04-18T01:43:42.154Z,64.94
2023-04-18T01:48:45.482Z,66.00
2023-04-18T01:53:48.420Z,66.06
2023-04-18T01:58:52.559Z,63.14
2023-04-18T02:03:55.721Z,61.18
2023-04-18T02:08:58.710Z,63.02
2023-04-18T02:14:02.818Z,62.59
2023-04-18T02:19:06.321Z,62.57
2023-04-18T02:24:09.056Z,63.11
2023-04-18T02:29:13.249Z,62.65
2023-04-18T02:34:16.633Z,63.38
2023-04-18T02:39:19.437Z,63.82
2023-04-18T02:44:23.643Z,62.11
2023-04-18T02:49:26.366Z,64.01
2023-04-18T02:54:29.188Z,65.78
2023-04-18T02:59:39.662Z,65.66
2023-04-18T03:04:42.422Z,65.96
2023-04-18T03:09:46.402Z,65.03
2023-04-18T03:14:56.096Z,64.91
2023-04-18T03:19:58.876Z,66.08
2023-04-18T03:25:01.910Z,64.65
2023-04-18T03:30:18.768Z,64.63
2023-04-18T03:35:27.309Z,64.49
2023-04-18T03:40:30.749Z,65.79
2023-04-18T03:45:41.201Z,65.55
2023-04-18T03:50:44.184Z,64.30
2023-04-18T03:55:47.389Z,64.40
2023-04-18T04:00:55.184Z,65.31
2023-04-18T04:05:58.237Z,64.10
2023-04-18T04:11:01.290Z,64.58
2023-04-18T04:16:07.072Z,65.40
2023-04-18T04:21:10.076Z,64.35
2023-04-18T04:26:23.062Z,65.11
2023-04-18T04:31:35.802Z,64.61
2023-04-18T04:36:41.125Z,65.59
2023-04-18T04:41:44.832Z,64.11
2023-04-18T04:46:49.776Z,64.41
2023-04-18T04:51:57.818Z,64.03
2023-04-18T04:57:01.526Z,62.51
2023-04-18T05:02:05.921Z,62.69
2023-04-18T05:07:08.809Z,62.50
2023-04-18T05:12:11.539Z,60.96
2023-04-18T05:17:15.763Z,60.25
2023-04-18T05:22:18.493Z,59.64
2023-04-18T05:27:21.588Z,58.99
2023-04-18T05:32:25.731Z,58.65
2023-04-18T05:37:28.470Z,57.33
2023-04-18T05:42:31.167Z,57.86
2023-04-18T05:47:35.542Z,56.68
2023-04-18T05:52:38.944Z,55.26
2023-04-18T05:57:41.821Z,54.39
2023-04-18T06:02:46.102Z,52.00
2023-04-18T06:07:49.082Z,43.27
2023-04-18T06:12:51.858Z,39.11
2023-04-18T06:17:56.025Z,39.29
2023-04-18T06:22:58.805Z,37.08
2023-04-18T06:28:01.575Z,37.79
2023-04-18T06:33:05.806Z,34.92
2023-04-18T06:38:08.764Z,36.03
2023-04-18T06:43:11.501Z,38.84
2023-04-18T06:48:16.606Z,42.87
2023-04-18T06:53:19.393Z,43.47
2023-04-18T06:58:22.100Z,42.91
2023-04-18T07:03:26.990Z,43.01
2023-04-18T07:08:29.846Z,42.35
2023-04-18T07:13:32.803Z,42.08
2023-04-18T07:18:38.296Z,41.96
2023-04-18T07:23:41.704Z,41.36
2023-04-18T07:28:44.512Z,42.80
2023-04-18T07:33:48.700Z,42.22
2023-04-18T07:38:51.800Z,41.75
2023-04-18T07:43:54.589Z,41.41
2023-04-18T07:48:58.882Z,41.95
2023-04-18T07:54:02.127Z,41.97
2023-04-18T07:59:04.946Z,40.44
2023-04-18T08:04:09.281Z,39.92
2023-04-18T08:09:13.191Z,39.98
2023-04-18T08:14:16.334Z,38.47
2023-04-18T08:19:20.526Z,40.50
2023-04-18T08:24:23.338Z,42.23
2023-04-18T08:29:26.574Z,41.98
2023-04-18T08:34:34.089Z,43.60
2023-04-18T08:39:37.038Z,43.28
2023-04-18T08:44:39.798Z,43.71
2023-04-18T08:49:46.625Z,43.24
2023-04-18T08:54:51.923Z,42.22
2023-04-18T08:59:55.452Z,43.34
2023-04-18T09:04:59.631Z,44.32
2023-04-18T09:10:02.369Z,43.08
2023-04-18T09:15:13.701Z,44.76
2023-04-18T09:20:30.594Z,44.93
2023-04-18T09:25:41.286Z,43.65
2023-04-18T09:30:46.513Z,42.60
2023-04-18T09:35:51.857Z,43.33
2023-04-18T09:41:09.663Z,46.60
2023-04-18T09:46:12.829Z,47.25
2023-04-18T09:51:17.823Z,48.54
2023-04-18T09:56:25.659Z,46.02
2023-04-18T10:01:29.432Z,45.57
2023-04-18T10:06:35.454Z,44.30
2023-04-18T10:11:38.382Z,45.20
2023-04-18T10:16:42.061Z,44.30
2023-04-18T10:21:53.595Z,42.03
2023-04-18T10:26:56.543Z,43.55
2023-04-18T10:32:06.582Z,43.64
2023-04-18T10:37:12.756Z,42.48
2023-04-18T10:42:15.675Z,41.96
2023-04-18T10:47:27.582Z,40.23
2023-04-18T10:52:32.310Z,41.17
2023-04-18T10:57:43.358Z,42.54
2023-04-18T11:02:50.779Z,41.54
2023-04-18T11:07:55.708Z,41.59
2023-04-18T11:13:04.402Z,40.86
2023-04-18T11:18:07.251Z,40.79
2023-04-18T11:23:20.533Z,40.54
2023-04-18T11:28:24.790Z,44.33
2023-04-18T11:33:29.537Z,44.19
2023-04-18T11:38:34.539Z,42.60
2023-04-18T11:43:37.389Z,41.66
2023-04-18T11:48:42.225Z,42.85
2023-04-18T11:53:46.638Z,42.27
2023-04-18T11:58:49.498Z,42.65
2023-04-18T12:04:02.982Z,41.07
2023-04-18T12:09:07.847Z,40.09
2023-04-18T12:14:21.426Z,38.16
2023-04-18T12:19:27.574Z,39.81
2023-04-18T12:24:32.194Z,41.96
2023-04-18T12:29:35.084Z,40.98
2023-04-18T12:34:37.851Z,41.28
2023-04-18T12:39:41.926Z,42.93
2023-04-18T12:44:46.945Z,42.89
2023-04-18T12:49:51.040Z,41.99
2023-04-18T12:54:56.283Z,39.76
2023-04-18T12:59:59.101Z,39.84
2023-04-18T13:05:01.932Z,39.84
2023-04-18T13:10:07.547Z,40.90
2023-04-18T13:15:11.613Z,40.50
2023-04-18T13:20:14.345Z,40.93
2023-04-18T13:25:18.539Z,41.79
2023-04-18T13:30:21.493Z,41.42
2023-04-18T13:35:24.242Z,40.84
2023-04-18T13:40:28.458Z,41.20
2023-04-18T13:45:31.235Z,42.49
2023-04-18T13:50:33.986Z,42.79
2023-04-18T13:55:38.137Z,42.79
2023-04-18T14:00:40.937Z,42.38
2023-04-18T14:05:43.708Z,42.04
2023-04-18T14:10:47.852Z,40.92
2023-04-18T14:15:50.648Z,40.60
2023-04-18T14:20:53.441Z,41.77
2023-04-18T14:25:57.483Z,41.11
2023-04-18T14:31:02.090Z,42.00
2023-04-18T14:36:05.658Z,43.82
2023-04-18T14:41:09.958Z,43.22
2023-04-18T14:46:13.590Z,41.30
2023-04-18T14:51:17.042Z,42.54
2023-04-18T14:56:23.529Z,42.68
2023-04-18T15:01:26.394Z,42.06
2023-04-18T15:06:30.226Z,44.41
2023-04-18T15:11:34.329Z,44.01
2023-04-18T15:16:39.399Z,44.00
2023-04-18T15:21:42.140Z,44.44
2023-04-18T15:26:46.427Z,44.90
2023-04-18T15:31:49.298Z,46.21
2023-04-18T15:36:52.061Z,44.96
2023-04-18T15:41:56.520Z,45.58
2023-04-18T15:47:01.607Z,44.59
2023-04-18T15:52:06.279Z,44.61
2023-04-18T15:57:10.443Z,45.49
2023-04-18T16:02:13.211Z,45.11
2023-04-18T16:07:16.008Z,47.02
2023-04-18T16:12:20.478Z,45.96
2023-04-18T16:17:23.278Z,46.34
2023-04-18T16:22:26.112Z,44.61
2023-04-18T16:27:30.399Z,46.13
2023-04-18T16:32:33.196Z,46.70
2023-04-18T16:37:35.990Z,46.40
2023-04-18T16:42:41.049Z,48.12
2023-04-18T16:47:43.786Z,47.64
2023-04-18T16:52:46.584Z,48.83
2023-04-18T16:57:50.870Z,47.71
2023-04-18T17:02:55.646Z,47.44
2023-04-18T17:07:58.444Z,48.06
2023-04-18T17:13:03.527Z,46.52
2023-04-18T17:18:06.391Z,47.03
2023-04-18T17:23:09.228Z,48.23
2023-04-18T17:28:13.962Z,47.80
2023-04-18T17:33:16.752Z,47.89
2023-04-18T17:38:19.622Z,48.11
2023-04-18T17:43:23.849Z,47.25
2023-04-18T17:48:26.889Z,47.44
2023-04-18T17:53:31.544Z,47.07
2023-04-18T17:58:36.501Z,48.02
2023-04-18T18:03:39.582Z,47.92
2023-04-18T18:08:44.159Z,48.79
2023-04-18T18:13:51.878Z,48.61
2023-04-18T18:18:54.725Z,48.60
2023-04-18T18:23:57.576Z,49.35
2023-04-18T18:29:02.101Z,51.29
2023-04-18T18:34:05.160Z,50.32
2023-04-18T18:39:07.971Z,51.15
2023-04-18T18:44:12.873Z,52.97
2023-04-18T18:49:16.040Z,52.76
2023-04-18T18:54:18.963Z,52.88
2023-04-18T18:59:23.208Z,53.25
2023-04-18T19:04:26.100Z,55.46
2023-04-18T19:09:28.984Z,55.09
2023-04-18T19:14:33.106Z,55.25
2023-04-18T19:19:36.251Z,55.50
2023-04-18T19:24:39.036Z,55.61
2023-04-18T19:29:43.129Z,56.98
2023-04-18T19:34:45.884Z,55.68
2023-04-18T19:39:48.742Z,55.75
2023-04-18T19:44:53.081Z,55.52
2023-04-18T19:49:55.936Z,55.25
2023-04-18T19:54:58.708Z,55.10
2023-04-18T20:00:03.599Z,54.88
2023-04-18T20:05:15.432Z,54.81
2023-04-18T20:10:22.733Z,54.71
2023-04-18T20:15:27.125Z,54.53
2023-04-18T20:20:33.167Z,52.78
2023-04-18T20:25:35.991Z,52.34
2023-04-18T20:30:40.217Z,52.86
2023-04-18T20:35:44.203Z,52.99
2023-04-18T20:40:47.165Z,53.31
2023-04-18T20:45:51.859Z,54.14
2023-04-18T20:50:54.732Z,54.49
2023-04-18T20:55:57.445Z,54.81
2023-04-18T21:01:01.584Z,55.56
2023-04-18T21:06:04.589Z,55.50
2023-04-18T21:11:07.434Z,56.65
2023-04-18T21:16:11.860Z,57.86
2023-04-18T21:21:14.577Z,57.75
2023-04-18T21:26:17.453Z,57.62
2023-04-18T21:31:21.590Z,56.64
2023-04-18T21:36:26.378Z,56.12
2023-04-18T21:41:29.409Z,55.84
2023-04-18T21:46:33.595Z,55.23
2023-04-18T21:51:36.346Z,54.23
2023-04-18T21:56:39.143Z,53.98
2023-04-18T22:01:43.906Z,53.52
2023-04-18T22:06:46.724Z,53.22
2023-04-18T22:11:51.079Z,54.06
2023-04-18T22:16:55.514Z,53.95
2023-04-18T22:21:58.361Z,54.18
2023-04-18T22:27:02.761Z,53.57
2023-04-18T22:32:06.956Z,53.78
2023-04-18T22:37:09.741Z,54.85
2023-04-18T22:42:12.501Z,53.85
2023-04-18T22:47:16.729Z,53.82
2023-04-18T22:52:19.653Z,54.61
2023-04-18T22:57:22.422Z,55.03
2023-04-18T23:02:26.738Z,53.84
2023-04-18T23:07:29.763Z,54.26
2023-04-18T23:12:32.505Z,54.15
2023-04-18T23:17:36.659Z,52.65
2023-04-18T23:22:39.515Z,51.99
2023-04-18T23:27:42.334Z,52.12
2023-04-18T23:32:46.490Z,53.09
2023-04-18T23:37:50.100Z,52.11
2023-04-18T23:42:53.080Z,51.94
2023-04-18T23:47:57.237Z,51.77
2023-04-18T23:53:00.020Z,50.54
2023-04-18T23:58:02.782Z,50.69
